KMJX

Ocean County Airport

Toms River, New Jersey, USA
METAR KMJX 170356Z AUTO 00000KT 10SM CLR 07/06 A3009 RMK AO2 SLP197 T00670061
Observed Flight Rules
Oct-17 @ 03:56 UTC (an hour ago) Visual Flight Rules
Visibility Clouds
10 miles
  • Clear skies
Temperatures Readings
Current 7°C / 45°F
Dewpoint 6°C / 43°F
Humidity 93%
Altimeter 30.09" Hg
Pressure 1019.7 hPa
Elevation 25
METAR KMJX 170356Z AUTO 00000KT 10SM CLR 07/06 A3009 RMK AO2 SLP197 T00670061
Observed Flight Rules
Oct-17 @ 03:56 UTC
(an hour ago)
VFR
Clouds
  • Clear skies
Temperature Dewpoint
7°C / 45°F 6°C / 43°F
Humidity Altimeter Pressure
93% 30.09" Hg 1019.7 hPa